Time;durP1;ratioP1;P1;durP2;ratioP2;P2;SDS_P1;SDS_P2;PMS_P1;PMS_P2;Temp;Humidity;BMP_temperature;BMP_pressure;BME280_temperature;BME280_humidity;BME280_pressure;Samples;Min_cycle;Max_cycle;Signal;HPM_P1;HPM_P2
2023/06/16 00:00:25;;;;;;;0.20;0.20;;;13.30;99.90;;;;;;5101959;28;20597;-84
2023/06/16 00:02:51;;;;;;;0.17;0.17;;;13.30;99.90;;;;;;5102004;28;20028;-83
2023/06/16 00:05:17;;;;;;;0.20;0.20;;;13.40;99.90;;;;;;5101878;28;20024;-80
2023/06/16 00:07:43;;;;;;;0.10;0.10;;;13.40;99.90;;;;;;5084029;28;20631;-85
2023/06/16 00:10:09;;;;;;;0.10;0.10;;;13.40;99.90;;;;;;5102566;28;20129;-83
2023/06/16 00:12:36;;;;;;;0.20;0.20;;;13.20;99.90;;;;;;5102046;28;20016;-80
2023/06/16 00:15:02;;;;;;;0.10;0.10;;;13.50;99.90;;;;;;5101693;28;20027;-85
2023/06/16 00:17:29;;;;;;;0.20;0.20;;;13.50;99.90;;;;;;5102137;28;20019;-89
2023/06/16 00:19:59;;;;;;;0.20;0.20;;;13.50;99.90;;;;;;5101365;28;20112;-79
2023/06/16 00:22:27;;;;;;;0.20;0.20;;;13.50;99.90;;;;;;5102372;28;20097;-83
2023/06/16 00:24:53;;;;;;;0.10;0.10;;;13.50;99.90;;;;;;5102530;28;20539;-78
2023/06/16 00:27:22;;;;;;;0.20;0.20;;;13.50;99.90;;;;;;5102236;28;20020;-88
2023/06/16 00:29:49;;;;;;;0.20;0.20;;;13.50;99.90;;;;;;5100815;28;20031;-80
2023/06/16 00:32:15;;;;;;;0.10;0.10;;;13.50;99.90;;;;;;5101068;28;20386;-80
2023/06/16 00:34:41;;;;;;;0.10;0.10;;;13.50;99.90;;;;;;5101377;28;20042;-81
2023/06/16 00:37:07;;;;;;;0.20;0.20;;;13.50;99.90;;;;;;5100797;28;20383;-85
2023/06/16 00:39:32;;;;;;;0.10;0.10;;;13.60;99.90;;;;;;5099689;28;20028;-86
2023/06/16 00:41:58;;;;;;;1.00;1.00;;;13.60;99.90;;;;;;5082887;28;20085;-80
2023/06/16 00:44:24;;;;;;;0.10;0.10;;;13.60;99.90;;;;;;5101201;28;20568;-78
2023/06/16 00:46:50;;;;;;;0.20;0.20;;;13.60;99.90;;;;;;5082628;28;20213;-84
2023/06/16 00:49:17;;;;;;;0.20;0.20;;;13.60;99.90;;;;;;5101234;28;20513;-88
2023/06/16 00:51:44;;;;;;;1.00;1.00;;;13.60;99.90;;;;;;5102408;28;20042;-81
2023/06/16 00:54:15;;;;;;;0.20;0.20;;;13.60;99.90;;;;;;5101900;28;20102;-81
2023/06/16 00:56:43;;;;;;;0.20;0.20;;;13.50;99.90;;;;;;5102154;28;20023;-88
2023/06/16 00:59:09;;;;;;;0.20;0.20;;;13.50;99.90;;;;;;5101773;28;20307;-79
2023/06/16 01:01:34;;;;;;;6.07;3.13;;;13.50;99.90;;;;;;5106284;28;20087;-83
2023/06/16 01:04:01;;;;;;;0.10;0.10;;;13.50;99.90;;;;;;5108488;28;20578;-83
2023/06/16 01:06:35;;;;;;;0.10;0.10;;;13.50;99.90;;;;;;5108669;28;20028;-82
2023/06/16 01:09:06;;;;;;;0.20;0.20;;;13.50;99.90;;;;;;5108449;28;20039;-84
2023/06/16 01:11:40;;;;;;;0.20;0.20;;;13.40;99.90;;;;;;5089818;28;20100;-85
2023/06/16 01:14:15;;;;;;;0.20;0.20;;;13.40;99.90;;;;;;5089804;28;20319;-80
2023/06/16 01:16:43;;;;;;;0.20;0.20;;;13.40;99.90;;;;;;5108331;28;20532;-84
2023/06/16 01:19:17;;;;;;;0.20;0.20;;;13.40;99.90;;;;;;5106030;28;20035;-86
2023/06/16 01:22:06;;;;;;;1.25;1.17;;;13.40;99.90;;;;;;5102818;28;20016;-76
2023/06/16 01:24:35;;;;;;;0.17;0.17;;;13.40;99.90;;;;;;5084549;28;20024;-80
2023/06/16 01:27:13;;;;;;;2.05;1.90;;;13.40;99.90;;;;;;5084106;28;20417;-83
2023/06/16 01:29:40;;;;;;;0.15;0.15;;;13.40;99.90;;;;;;5103647;28;20024;-80
2023/06/16 01:32:08;;;;;;;0.10;0.10;;;13.40;99.90;;;;;;5102861;28;20023;-86
2023/06/16 01:34:35;;;;;;;0.10;0.10;;;13.40;99.90;;;;;;5102939;28;20261;-85
2023/06/16 01:37:03;;;;;;;0.10;0.10;;;13.50;99.90;;;;;;5083943;28;20028;-85
2023/06/16 01:39:29;;;;;;;0.10;0.10;;;13.50;99.90;;;;;;5102518;28;20340;-84
2023/06/16 01:41:58;;;;;;;0.20;0.20;;;13.50;99.90;;;;;;5100645;28;20027;-82
2023/06/16 01:44:26;;;;;;;0.10;0.10;;;13.50;99.90;;;;;;5102140;28;20500;-84
2023/06/16 01:46:53;;;;;;;0.10;0.10;;;13.50;99.90;;;;;;5101442;28;20243;-84
2023/06/16 01:49:19;;;;;;;0.20;0.20;;;13.50;99.90;;;;;;5083049;28;20370;-81
2023/06/16 01:51:45;;;;;;;0.13;0.13;;;13.50;99.90;;;;;;5100536;28;20509;-86
2023/06/16 01:54:11;;;;;;;0.13;0.13;;;13.50;99.90;;;;;;5100527;28;20081;-86
2023/06/16 01:56:49;;;;;;;0.20;0.20;;;13.50;99.90;;;;;;5101719;28;20032;-85
2023/06/16 01:59:27;;;;;;;0.10;0.10;;;13.40;99.90;;;;;;5105181;28;20034;-78
2023/06/16 02:01:58;;;;;;;0.10;0.10;;;13.40;99.90;;;;;;5100584;28;20020;-83
2023/06/16 02:04:27;;;;;;;0.10;0.10;;;13.40;99.90;;;;;;5082367;28;20032;-87
2023/06/16 02:07:08;;;;;;;0.10;0.10;;;13.50;99.90;;;;;;5099809;28;20406;-80
2023/06/16 02:09:36;;;;;;;0.13;0.13;;;13.40;99.90;;;;;;5099642;28;20066;-90
2023/06/16 02:12:05;;;;;;;0.10;0.10;;;13.40;99.90;;;;;;5099944;28;20030;-87
2023/06/16 02:14:33;;;;;;;0.10;0.10;;;13.40;99.90;;;;;;5099969;28;20050;-77
2023/06/16 02:17:02;;;;;;;0.20;0.20;;;13.40;99.90;;;;;;5081076;28;20028;-81
2023/06/16 02:19:28;;;;;;;0.20;0.20;;;13.40;99.90;;;;;;5099306;28;20096;-81
2023/06/16 02:21:57;;;;;;;0.20;0.20;;;13.40;99.90;;;;;;5098899;28;20028;-78
2023/06/16 02:24:23;;;;;;;0.20;0.20;;;13.50;99.90;;;;;;5099001;28;20030;-79
2023/06/16 02:26:49;;;;;;;0.40;0.40;;;13.40;99.90;;;;;;5098842;28;20020;-84
2023/06/16 02:29:31;;;;;;;0.45;0.45;;;13.40;99.90;;;;;;5099317;28;20030;-86
2023/06/16 02:31:57;;;;;;;0.10;0.10;;;13.40;99.90;;;;;;5100385;28;20044;-80
2023/06/16 02:34:22;;;;;;;0.10;0.10;;;13.40;99.90;;;;;;5099139;28;20331;-76
2023/06/16 02:36:54;;;;;;;0.10;0.10;;;13.40;99.90;;;;;;5100477;28;20028;-78
2023/06/16 02:39:21;;;;;;;0.20;0.20;;;13.40;99.90;;;;;;5099030;28;20047;-79
2023/06/16 02:41:48;;;;;;;0.20;0.20;;;13.00;99.90;;;;;;5099147;28;20027;-80
2023/06/16 02:44:13;;;;;;;0.10;0.10;;;13.30;99.90;;;;;;5080141;28;20405;-81
2023/06/16 02:46:39;;;;;;;0.10;0.10;;;13.30;99.90;;;;;;5080497;28;20028;-89
2023/06/16 02:49:06;;;;;;;0.20;0.20;;;13.40;99.90;;;;;;5098598;28;20020;-81
2023/06/16 02:51:31;;;;;;;0.13;0.13;;;13.30;99.90;;;;;;5098424;28;20039;-84
2023/06/16 02:54:00;;;;;;;0.10;0.10;;;13.30;99.90;;;;;;5080703;28;20220;-83
2023/06/16 02:56:32;;;;;;;0.10;0.10;;;13.30;99.90;;;;;;5099791;28;20016;-89
2023/06/16 02:58:58;;;;;;;0.20;0.20;;;13.30;99.90;;;;;;5099181;28;20335;-87
2023/06/16 03:01:28;;;;;;;0.20;0.20;;;13.30;99.90;;;;;;5098914;28;20041;-89
2023/06/16 03:03:56;;;;;;;1.13;1.13;;;13.30;99.90;;;;;;5084491;28;20020;-81
2023/06/16 03:06:22;;;;;;;0.20;0.20;;;12.80;99.90;;;;;;5102013;28;20504;-82
2023/06/16 03:08:48;;;;;;;0.10;0.10;;;13.30;99.90;;;;;;5102688;28;20208;-82
2023/06/16 03:11:15;;;;;;;0.10;0.10;;;13.30;99.90;;;;;;5102552;28;20019;-84
2023/06/16 03:13:42;;;;;;;0.20;0.20;;;13.30;99.90;;;;;;5102564;28;20019;-84
2023/06/16 03:16:07;;;;;;;0.13;0.13;;;13.20;99.90;;;;;;5084389;28;20016;-90
2023/06/16 03:18:33;;;;;;;0.20;0.20;;;13.30;99.90;;;;;;5101840;28;20100;-82
2023/06/16 03:21:01;;;;;;;0.10;0.10;;;13.20;99.90;;;;;;5105749;28;20576;-90
2023/06/16 03:23:27;;;;;;;0.10;0.10;;;13.30;99.90;;;;;;5105589;28;20349;-89
2023/06/16 03:25:56;;;;;;;0.20;0.20;;;13.30;99.90;;;;;;5103571;28;20276;-87
2023/06/16 03:28:23;;;;;;;0.20;0.20;;;13.30;99.90;;;;;;5102425;28;20208;-80
2023/06/16 03:30:52;;;;;;;0.10;0.10;;;13.30;99.90;;;;;;5102422;28;20028;-80
2023/06/16 03:33:19;;;;;;;0.10;0.10;;;13.30;99.90;;;;;;5102002;28;20042;-83
2023/06/16 03:35:45;;;;;;;0.20;0.20;;;13.30;99.90;;;;;;5101966;28;20027;-78
2023/06/16 03:38:10;;;;;;;0.10;0.10;;;13.40;99.90;;;;;;5102000;28;20120;-79
2023/06/16 03:40:37;;;;;;;0.35;0.35;;;13.40;99.90;;;;;;5101844;28;20111;-84
2023/06/16 03:43:03;;;;;;;0.10;0.10;;;13.30;99.90;;;;;;5101847;28;20442;-84
2023/06/16 03:45:28;;;;;;;0.10;0.10;;;13.40;99.90;;;;;;5083540;28;20052;-83
2023/06/16 03:48:02;;;;;;;0.20;0.20;;;13.30;99.90;;;;;;5101314;28;20102;-86
2023/06/16 03:50:28;;;;;;;0.20;0.20;;;13.40;99.90;;;;;;5101892;28;20039;-79
2023/06/16 03:52:54;;;;;;;0.10;0.10;;;13.40;99.90;;;;;;5101469;28;20033;-83
2023/06/16 03:55:20;;;;;;;0.10;0.10;;;13.40;99.90;;;;;;5101498;28;20039;-87
2023/06/16 03:57:46;;;;;;;0.20;0.20;;;13.40;99.90;;;;;;5101432;28;20111;-86
2023/06/16 04:00:12;;;;;;;0.10;0.10;;;13.40;99.90;;;;;;5101646;28;20050;-83
2023/06/16 04:02:37;;;;;;;0.10;0.10;;;13.40;99.90;;;;;;5101192;28;20251;-90
2023/06/16 04:05:03;;;;;;;0.10;0.10;;;13.40;99.90;;;;;;5101818;28;20023;-81
2023/06/16 04:07:30;;;;;;;0.10;0.10;;;13.40;99.90;;;;;;5102698;28;20028;-79
2023/06/16 04:09:56;;;;;;;0.10;0.10;;;13.50;99.90;;;;;;5102211;28;20518;-86
2023/06/16 04:12:22;;;;;;;0.10;0.10;;;13.50;99.90;;;;;;5084163;28;20497;-85
2023/06/16 04:14:48;;;;;;;0.20;0.20;;;13.50;99.90;;;;;;5100979;28;20115;-81
2023/06/16 04:17:14;;;;;;;0.17;0.17;;;13.50;99.90;;;;;;5101435;28;20102;-79
2023/06/16 04:19:41;;;;;;;1.88;1.75;;;13.60;99.90;;;;;;5100422;28;20399;-77
2023/06/16 04:22:07;;;;;;;0.10;0.10;;;13.50;99.90;;;;;;5083288;28;20019;-80
2023/06/16 04:24:32;;;;;;;0.10;0.10;;;13.40;99.90;;;;;;5082640;28;20093;-81
2023/06/16 04:26:59;;;;;;;0.15;0.15;;;13.40;99.90;;;;;;5101166;28;20023;-78
2023/06/16 04:29:28;;;;;;;0.25;0.25;;;13.50;99.90;;;;;;5082902;28;20059;-79
2023/06/16 04:31:59;;;;;;;0.13;0.13;;;13.50;99.90;;;;;;5101675;28;20494;-84
2023/06/16 04:34:26;;;;;;;1.95;1.85;;;13.50;99.90;;;;;;5101444;28;20032;-80
2023/06/16 04:36:57;;;;;;;0.10;0.10;;;13.50;99.90;;;;;;5101182;28;20016;-82
2023/06/16 04:39:23;;;;;;;0.20;0.20;;;13.50;99.90;;;;;;5100466;28;20063;-77
2023/06/16 04:41:48;;;;;;;0.17;0.17;;;13.50;99.90;;;;;;5100682;28;20027;-84
2023/06/16 04:44:14;;;;;;;0.20;0.20;;;13.50;99.90;;;;;;5100334;28;20381;-79
2023/06/16 04:46:40;;;;;;;0.10;0.10;;;13.70;99.90;;;;;;5100145;28;20016;-76
2023/06/16 04:49:06;;;;;;;0.20;0.20;;;13.50;99.90;;;;;;5099776;28;20466;-81
2023/06/16 04:51:33;;;;;;;0.10;0.10;;;13.40;99.90;;;;;;5100506;28;20023;-83
2023/06/16 04:54:00;;;;;;;0.10;0.10;;;13.40;99.90;;;;;;5099937;28;20031;-86
2023/06/16 04:56:25;;;;;;;0.10;0.10;;;13.40;99.90;;;;;;5100438;28;20089;-84
2023/06/16 04:58:58;;;;;;;0.20;0.20;;;13.40;99.90;;;;;;5100956;28;20062;-85
2023/06/16 05:01:26;;;;;;;0.10;0.10;;;13.30;99.90;;;;;;5101856;28;20722;-86
2023/06/16 05:03:53;;;;;;;0.10;0.10;;;13.20;99.90;;;;;;5081974;28;20042;-88
2023/06/16 05:06:18;;;;;;;0.20;0.20;;;13.20;99.90;;;;;;5081626;28;20024;-87
2023/06/16 05:08:45;;;;;;;0.10;0.10;;;13.20;99.90;;;;;;5100032;28;20111;-81
2023/06/16 05:11:10;;;;;;;0.20;0.20;;;13.10;99.90;;;;;;5100765;28;20077;-82
2023/06/16 05:13:36;;;;;;;0.10;0.10;;;13.20;99.90;;;;;;5100148;28;20490;-84
2023/06/16 05:16:02;;;;;;;0.20;0.20;;;13.20;99.90;;;;;;5100842;28;20020;-83
2023/06/16 05:18:28;;;;;;;0.20;0.20;;;13.20;99.90;;;;;;5100234;28;20063;-86
2023/06/16 05:20:54;;;;;;;0.15;0.15;;;13.20;99.90;;;;;;5099519;28;20419;-89
2023/06/16 05:23:19;;;;;;;0.10;0.10;;;13.10;99.90;;;;;;5100033;28;20024;-83
2023/06/16 05:25:54;;;;;;;0.20;0.20;;;13.10;99.90;;;;;;5100132;28;20304;-89
2023/06/16 05:28:20;;;;;;;0.10;0.10;;;13.10;99.90;;;;;;5081456;28;20048;-77
2023/06/16 05:30:48;;;;;;;0.10;0.10;;;13.00;99.90;;;;;;5081268;28;20650;-85
2023/06/16 05:33:14;;;;;;;0.10;0.10;;;13.10;99.90;;;;;;5099389;28;20023;-76
2023/06/16 05:35:41;;;;;;;0.10;0.10;;;13.00;99.90;;;;;;5099988;28;20165;-88
2023/06/16 05:38:07;;;;;;;0.10;0.10;;;13.10;99.90;;;;;;5099806;28;20461;-80
2023/06/16 05:40:33;;;;;;;0.10;0.10;;;13.10;99.90;;;;;;5099344;28;20655;-84
2023/06/16 05:42:58;;;;;;;0.20;0.20;;;13.20;99.90;;;;;;5098419;28;20050;-76
2023/06/16 05:45:24;;;;;;;0.10;0.10;;;13.20;99.90;;;;;;5098794;28;20019;-84
2023/06/16 05:47:50;;;;;;;0.10;0.10;;;15.00;99.90;;;;;;5098791;28;20047;-86
2023/06/16 05:50:16;;;;;;;0.20;0.20;;;13.30;99.90;;;;;;5099114;28;20015;-84
2023/06/16 05:52:42;;;;;;;0.20;0.20;;;13.30;99.90;;;;;;5079720;28;20651;-79
2023/06/16 05:55:08;;;;;;;0.10;0.10;;;13.30;99.90;;;;;;5098589;28;20040;-81
2023/06/16 05:57:34;;;;;;;0.20;0.20;;;13.30;99.90;;;;;;5098241;28;20120;-88
2023/06/16 06:00:00;;;;;;;0.10;0.10;;;13.30;99.90;;;;;;5098715;28;20055;-79
2023/06/16 06:02:26;;;;;;;0.10;0.10;;;13.30;99.90;;;;;;5098393;28;20094;-80
2023/06/16 06:04:51;;;;;;;1.55;1.45;;;13.30;99.90;;;;;;5098322;28;20405;-86
2023/06/16 06:07:17;;;;;;;0.10;0.10;;;13.40;99.90;;;;;;5098321;28;20497;-76
2023/06/16 06:09:43;;;;;;;0.10;0.10;;;13.40;99.90;;;;;;5098286;28;20304;-86
2023/06/16 06:12:11;;;;;;;0.20;0.20;;;13.40;99.90;;;;;;5098318;28;20267;-84
2023/06/16 06:14:36;;;;;;;0.70;0.70;;;13.40;99.90;;;;;;5098480;28;20059;-88
2023/06/16 06:17:03;;;;;;;0.28;0.28;;;13.40;99.90;;;;;;5098133;28;20443;-83
2023/06/16 06:19:29;;;;;;;0.10;0.10;;;13.30;99.90;;;;;;5098132;28;20228;-80
2023/06/16 06:21:55;;;;;;;0.10;0.10;;;13.30;99.90;;;;;;5099651;28;20423;-79
2023/06/16 06:24:21;;;;;;;0.10;0.10;;;13.30;99.90;;;;;;5098909;28;20047;-77
2023/06/16 06:26:47;;;;;;;0.20;0.20;;;13.40;99.90;;;;;;5098047;28;20343;-90
2023/06/16 06:29:15;;;;;;;0.20;0.20;;;13.40;99.90;;;;;;5098572;28;20430;-88
2023/06/16 06:31:41;;;;;;;0.68;0.68;;;13.40;99.90;;;;;;5098443;28;20229;-76
2023/06/16 06:34:07;;;;;;;0.10;0.10;;;13.30;99.90;;;;;;5098288;28;20094;-83
2023/06/16 06:36:36;;;;;;;0.10;0.10;;;13.30;99.90;;;;;;5098637;28;20035;-83
2023/06/16 06:39:02;;;;;;;0.17;0.17;;;13.40;99.90;;;;;;5102608;28;20113;-77
2023/06/16 06:41:28;;;;;;;0.15;0.15;;;12.90;99.90;;;;;;5102296;28;20043;-91
2023/06/16 06:43:54;;;;;;;0.10;0.10;;;;;;;;;;5102110;28;20023;-81
2023/06/16 06:46:20;;;;;;;0.35;0.35;;;13.40;99.90;;;;;;5102206;28;20296;-80
2023/06/16 06:48:46;;;;;;;0.10;0.10;;;13.40;99.90;;;;;;5101926;28;20263;-82
2023/06/16 06:51:13;;;;;;;0.30;0.30;;;13.50;99.90;;;;;;5092818;28;20501;-78
2023/06/16 06:53:40;;;;;;;0.30;0.30;;;13.50;99.90;;;;;;5081782;28;20027;-92
2023/06/16 06:56:06;;;;;;;0.32;0.32;;;13.50;99.90;;;;;;5082572;28;20040;-84
2023/06/16 06:58:33;;;;;;;0.10;0.10;;;13.50;99.90;;;;;;5102682;28;20030;-80
2023/06/16 07:00:58;;;;;;;0.10;0.10;;;13.50;99.90;;;;;;5102845;28;20019;-81
2023/06/16 07:03:26;;;;;;;1.60;1.50;;;13.50;99.90;;;;;;5102709;28;20085;-80
2023/06/16 07:05:52;;;;;;;0.10;0.10;;;13.50;99.90;;;;;;5102352;28;20049;-84
2023/06/16 07:08:18;;;;;;;0.50;0.50;;;14.30;99.90;;;;;;5084604;28;20032;-86
2023/06/16 07:10:43;;;;;;;0.20;0.20;;;13.50;99.90;;;;;;5102600;28;20007;-84
2023/06/16 07:13:09;;;;;;;0.10;0.10;;;13.50;99.90;;;;;;5083905;28;20027;-80
2023/06/16 07:15:35;;;;;;;0.10;0.10;;;13.50;99.90;;;;;;5102040;28;20020;-77
2023/06/16 07:18:01;;;;;;;0.50;0.50;;;13.50;99.90;;;;;;5102537;28;20111;-85
2023/06/16 07:20:27;;;;;;;0.10;0.10;;;13.50;99.90;;;;;;5103096;28;20216;-85
2023/06/16 07:22:53;;;;;;;31.30;6.93;;;13.60;99.90;;;;;;5103595;28;20016;-77
2023/06/16 07:25:19;;;;;;;0.20;0.20;;;13.60;99.90;;;;;;5103505;28;20073;-83
2023/06/16 07:27:45;;;;;;;1.35;1.35;;;13.60;99.90;;;;;;5102872;28;20023;-79
2023/06/16 07:30:12;;;;;;;0.32;0.32;;;13.70;99.90;;;;;;5103625;28;20024;-76
2023/06/16 07:32:41;;;;;;;0.20;0.20;;;13.70;99.90;;;;;;5085436;28;20081;-76
2023/06/16 07:35:08;;;;;;;0.20;0.20;;;13.70;99.90;;;;;;5086009;28;20104;-76
2023/06/16 07:37:36;;;;;;;0.10;0.10;;;13.70;99.90;;;;;;5085435;28;20504;-76
2023/06/16 07:40:07;;;;;;;0.10;0.10;;;13.80;99.90;;;;;;5103188;28;20024;-76
2023/06/16 07:42:33;;;;;;;0.35;0.35;;;13.70;99.90;;;;;;5102211;28;20019;-79
2023/06/16 07:44:58;;;;;;;0.10;0.10;;;13.80;99.90;;;;;;5102031;28;20027;-90
2023/06/16 07:47:24;;;;;;;0.13;0.13;;;13.80;99.90;;;;;;5083628;28;20099;-88
2023/06/16 07:49:50;;;;;;;0.10;0.10;;;13.90;99.90;;;;;;5102152;28;20653;-84
2023/06/16 07:52:16;;;;;;;0.20;0.20;;;13.80;99.90;;;;;;5101968;28;20020;-75
2023/06/16 07:54:42;;;;;;;0.10;0.10;;;13.70;99.90;;;;;;5083527;28;20047;-89
2023/06/16 07:57:07;;;;;;;0.20;0.20;;;13.70;99.90;;;;;;5102022;28;20016;-82
2023/06/16 07:59:33;;;;;;;0.20;0.20;;;11.50;99.90;;;;;;5102294;28;20052;-78
2023/06/16 08:02:01;;;;;;;0.20;0.20;;;13.80;99.90;;;;;;5101901;28;20039;-90
2023/06/16 08:04:29;;;;;;;0.10;0.10;;;13.90;99.90;;;;;;5102415;28;20101;-83
2023/06/16 08:06:57;;;;;;;0.30;0.30;;;14.00;99.90;;;;;;5101858;28;20034;-80
2023/06/16 08:09:25;;;;;;;0.20;0.20;;;14.60;99.90;;;;;;5100917;28;20754;-79
2023/06/16 08:11:51;;;;;;;0.10;0.10;;;14.30;99.90;;;;;;5101343;28;20019;-88
2023/06/16 08:14:17;;;;;;;0.20;0.20;;;14.30;99.90;;;;;;5101490;28;20810;-81
2023/06/16 08:16:42;;;;;;;0.10;0.10;;;14.40;99.90;;;;;;5101071;28;20044;-81
2023/06/16 08:19:08;;;;;;;0.10;0.10;;;14.40;99.90;;;;;;5101024;28;20718;-87
2023/06/16 08:21:35;;;;;;;0.20;0.20;;;14.50;99.90;;;;;;5100389;28;20243;-75
2023/06/16 08:24:01;;;;;;;0.10;0.10;;;14.50;99.90;;;;;;5099856;28;20034;-77
2023/06/16 08:26:30;;;;;;;0.10;0.10;;;14.60;99.90;;;;;;5100842;28;20036;-79
2023/06/16 08:28:56;;;;;;;0.10;0.10;;;14.60;99.90;;;;;;5081705;28;20023;-74
2023/06/16 08:31:21;;;;;;;1.10;1.10;;;14.70;99.90;;;;;;5100451;28;20072;-73
2023/06/16 08:33:47;;;;;;;0.15;0.15;;;14.80;99.90;;;;;;5081514;28;20570;-73
2023/06/16 08:36:13;;;;;;;0.30;0.30;;;14.70;99.90;;;;;;5081143;28;20047;-74
2023/06/16 08:38:39;;;;;;;0.10;0.10;;;14.80;99.90;;;;;;5099355;28;20051;-78
2023/06/16 08:41:10;;;;;;;0.30;0.30;;;14.80;99.90;;;;;;5100849;28;20042;-74
2023/06/16 08:43:37;;;;;;;0.10;0.10;;;14.60;99.90;;;;;;5099460;28;20036;-81
2023/06/16 08:46:08;;;;;;;3.83;3.30;;;14.90;99.90;;;;;;5099165;28;20096;-74
2023/06/16 08:48:37;;;;;;;0.10;0.10;;;15.40;99.90;;;;;;5100569;28;20753;-76
2023/06/16 08:51:04;;;;;;;0.17;0.17;;;14.80;99.90;;;;;;5082605;28;20036;-86
2023/06/16 08:53:33;;;;;;;0.57;0.57;;;14.70;99.90;;;;;;5100752;28;20012;-76
2023/06/16 08:56:02;;;;;;;0.20;0.20;;;14.70;99.90;;;;;;5100443;28;20092;-75
2023/06/16 08:58:30;;;;;;;0.10;0.10;;;14.60;99.90;;;;;;5101875;28;20032;-85
2023/06/16 09:01:02;;;;;;;0.10;0.10;;;14.50;99.90;;;;;;5103585;28;20128;-79
2023/06/16 09:03:32;;;;;;;0.10;0.10;;;14.60;99.90;;;;;;5082851;28;20429;-77
2023/06/16 09:06:00;;;;;;;1.95;1.65;;;14.60;99.90;;;;;;5102957;28;20107;-86
2023/06/16 09:08:27;;;;;;;0.20;0.20;;;14.60;99.90;;;;;;5101220;28;20027;-84
2023/06/16 09:10:55;;;;;;;0.20;0.20;;;14.70;99.90;;;;;;5100789;28;20031;-77
2023/06/16 09:13:22;;;;;;;0.40;0.40;;;14.80;99.90;;;;;;5100595;28;20024;-77
2023/06/16 09:15:56;;;;;;;0.20;0.20;;;14.80;99.90;;;;;;5101171;28;20020;-77
2023/06/16 09:18:22;;;;;;;0.10;0.10;;;14.80;99.90;;;;;;5106831;28;20039;-86
2023/06/16 09:20:52;;;;;;;0.10;0.10;;;14.90;99.90;;;;;;5105059;28;20219;-77
2023/06/16 09:23:28;;;;;;;0.10;0.10;;;14.90;99.90;;;;;;5106652;28;20074;-75
2023/06/16 09:25:54;;;;;;;0.10;0.10;;;13.90;99.90;;;;;;5110069;28;20031;-77
2023/06/16 09:28:33;;;;;;;0.10;0.10;;;14.90;99.90;;;;;;5105570;28;20003;-75
2023/06/16 09:31:11;;;;;;;0.45;0.45;;;15.00;99.90;;;;;;5103288;28;20076;-75
2023/06/16 09:33:37;;;;;;;0.10;0.10;;;15.20;99.90;;;;;;5102618;28;20019;-75
2023/06/16 09:36:03;;;;;;;0.22;0.22;;;15.40;99.90;;;;;;5084002;28;20573;-80
2023/06/16 09:38:36;;;;;;;0.10;0.10;;;15.40;99.90;;;;;;5100512;28;20067;-85
2023/06/16 09:41:10;;;;;;;1.00;1.00;;;15.50;99.90;;;;;;5099971;28;20513;-87
2023/06/16 09:43:37;;;;;;;0.10;0.10;;;15.50;99.90;;;;;;5101054;28;20020;-79
2023/06/16 09:46:04;;;;;;;0.20;0.20;;;15.40;99.90;;;;;;5099929;28;20088;-75
2023/06/16 09:48:34;;;;;;;0.22;0.22;;;15.50;99.90;;;;;;5081570;28;20131;-78
2023/06/16 09:51:00;;;;;;;0.10;0.10;;;15.50;99.90;;;;;;5101327;28;20046;-77
2023/06/16 09:53:26;;;;;;;0.10;0.10;;;15.30;99.90;;;;;;5099530;28;20015;-74
2023/06/16 09:55:55;;;;;;;0.52;0.50;;;15.20;99.90;;;;;;5100568;28;20078;-83
2023/06/16 09:58:21;;;;;;;0.10;0.10;;;15.20;99.90;;;;;;5101449;28;20033;-76
2023/06/16 10:00:47;;;;;;;0.20;0.20;;;15.20;99.90;;;;;;5101562;28;20019;-80
2023/06/16 10:03:14;;;;;;;0.17;0.17;;;15.20;99.90;;;;;;5102157;28;20023;-77
2023/06/16 10:05:42;;;;;;;0.28;0.28;;;15.10;99.90;;;;;;5101923;28;20540;-75
2023/06/16 10:08:08;;;;;;;0.10;0.10;;;15.10;99.90;;;;;;5082258;28;20591;-80
2023/06/16 10:10:41;;;;;;;0.10;0.10;;;15.20;99.90;;;;;;5101526;28;20501;-84
2023/06/16 10:13:08;;;;;;;0.20;0.20;;;15.30;99.90;;;;;;5100166;28;20055;-75
2023/06/16 10:15:42;;;;;;;0.10;0.10;;;15.30;99.90;;;;;;5100210;28;20650;-81
2023/06/16 10:18:12;;;;;;;0.10;0.10;;;15.50;99.90;;;;;;5099333;28;20558;-82
2023/06/16 10:20:39;;;;;;;0.20;0.20;;;15.70;99.90;;;;;;5099481;28;20058;-76
2023/06/16 10:23:06;;;;;;;1.48;1.38;;;14.10;99.90;;;;;;5099005;28;20019;-80
2023/06/16 10:25:33;;;;;;;1.77;1.67;;;15.80;99.90;;;;;;5080500;28;20031;-75
2023/06/16 10:28:07;;;;;;;0.13;0.13;;;15.80;99.90;;;;;;5098453;28;20011;-74
2023/06/16 10:30:34;;;;;;;0.10;0.10;;;15.70;99.90;;;;;;5098812;28;20064;-78
2023/06/16 10:33:13;;;;;;;0.10;0.10;;;15.50;99.90;;;;;;5099019;28;20016;-75
2023/06/16 10:35:49;;;;;;;0.20;0.20;;;15.50;99.90;;;;;;5098588;28;20008;-80
2023/06/16 10:38:15;;;;;;;0.20;0.20;;;15.40;99.90;;;;;;5081781;28;20062;-80
2023/06/16 10:40:42;;;;;;;0.20;0.20;;;15.30;99.90;;;;;;5099977;28;20078;-74
2023/06/16 10:43:10;;;;;;;0.20;0.20;;;15.30;99.90;;;;;;5099531;28;20030;-85
2023/06/16 10:45:39;;;;;;;0.20;0.20;;;15.20;99.90;;;;;;5100146;28;20101;-77
2023/06/16 10:48:11;;;;;;;0.30;0.30;;;15.10;99.90;;;;;;5100188;28;20012;-79
2023/06/16 10:50:39;;;;;;;0.10;0.10;;;15.00;99.90;;;;;;5099243;28;20016;-84
2023/06/16 10:53:23;;;;;;;0.25;0.25;;;15.00;99.90;;;;;;5098828;28;20023;-85
2023/06/16 10:56:04;;;;;;;0.10;0.10;;;14.90;99.90;;;;;;5082032;28;20728;-82
2023/06/16 10:58:30;;;;;;;0.10;0.10;;;14.80;99.90;;;;;;5099413;28;20040;-82
2023/06/16 11:00:59;;;;;;;1.17;1.17;;;14.70;99.90;;;;;;5100189;28;20100;-77
2023/06/16 11:03:45;;;;;;;1.10;1.10;;;14.70;99.90;;;;;;5081631;28;20024;-75
2023/06/16 11:06:11;;;;;;;0.20;0.20;;;14.60;99.90;;;;;;5099080;28;20645;-82
2023/06/16 11:08:49;;;;;;;0.20;0.20;;;14.70;99.90;;;;;;5099570;28;20043;-79
2023/06/16 11:11:16;;;;;;;0.20;0.20;;;14.70;99.90;;;;;;5099465;28;20027;-76
2023/06/16 11:13:42;;;;;;;0.10;0.10;;;14.80;99.90;;;;;;5098849;28;20096;-81
2023/06/16 11:16:08;;;;;;;0.10;0.10;;;14.90;99.90;;;;;;5098710;28;20098;-75
2023/06/16 11:18:35;;;;;;;0.70;0.70;;;14.90;99.90;;;;;;5099187;28;20027;-80
2023/06/16 11:21:08;;;;;;;0.10;0.10;;;18.70;99.90;;;;;;5081317;28;20019;-88
2023/06/16 11:23:35;;;;;;;0.32;0.32;;;15.00;99.90;;;;;;5100437;28;20031;-81
2023/06/16 11:26:09;;;;;;;0.20;0.20;;;15.00;99.90;;;;;;5085087;28;20076;-77
2023/06/16 11:28:40;;;;;;;0.10;0.10;;;14.90;99.90;;;;;;5102829;28;20462;-80
2023/06/16 11:31:10;;;;;;;0.10;0.10;;;15.00;99.90;;;;;;5102915;28;20088;-84
2023/06/16 11:33:37;;;;;;;0.10;0.10;;;15.00;99.90;;;;;;5103580;28;20020;-82
2023/06/16 11:36:20;;;;;;;0.15;0.15;;;15.00;99.90;;;;;;5103528;28;20020;-83
2023/06/16 11:38:51;;;;;;;0.10;0.10;;;15.10;99.90;;;;;;5102286;28;20158;-86
2023/06/16 11:41:23;;;;;;;0.17;0.17;;;15.10;99.90;;;;;;5083426;28;20557;-76
2023/06/16 11:43:52;;;;;;;0.10;0.10;;;15.20;99.90;;;;;;5102956;28;20024;-82
2023/06/16 11:46:21;;;;;;;0.10;0.10;;;15.30;99.90;;;;;;5102440;28;20086;-89
2023/06/16 11:48:47;;;;;;;0.10;0.10;;;15.40;99.90;;;;;;5103217;28;20016;-77
2023/06/16 11:51:14;;;;;;;0.20;0.20;;;15.50;99.90;;;;;;5084549;28;20726;-80
2023/06/16 11:53:40;;;;;;;0.10;0.10;;;15.60;99.90;;;;;;5084293;28;20051;-80
2023/06/16 11:56:07;;;;;;;0.20;0.20;;;15.70;99.90;;;;;;5102211;28;20086;-86
2023/06/16 11:58:33;;;;;;;0.20;0.20;;;15.80;99.90;;;;;;5102222;28;20536;-90
2023/06/16 12:01:01;;;;;;;0.13;0.13;;;15.90;99.90;;;;;;5102897;28;20085;-88
2023/06/16 12:03:35;;;;;;;0.10;0.10;;;15.90;99.90;;;;;;5102065;28;20012;-81
2023/06/16 12:06:06;;;;;;;0.10;0.10;;;15.90;99.90;;;;;;5102071;28;20031;-82
2023/06/16 12:08:35;;;;;;;0.17;0.17;;;15.90;99.90;;;;;;5103310;28;20098;-84
2023/06/16 12:11:01;;;;;;;0.10;0.10;;;15.90;99.90;;;;;;5103249;28;20099;-79
2023/06/16 12:13:27;;;;;;;0.20;0.20;;;15.90;99.90;;;;;;5102069;28;20099;-83
2023/06/16 12:15:53;;;;;;;0.10;0.10;;;15.90;99.90;;;;;;5101561;28;20024;-79
2023/06/16 12:18:18;;;;;;;0.10;0.10;;;15.80;99.90;;;;;;5102301;28;20299;-82
2023/06/16 12:20:45;;;;;;;0.65;0.65;;;15.80;99.90;;;;;;5101717;28;20015;-81
2023/06/16 12:23:11;;;;;;;0.32;0.32;;;15.80;99.90;;;;;;5066889;28;20580;-85
2023/06/16 12:25:37;;;;;;;0.10;0.10;;;15.90;99.90;;;;;;5102037;28;20637;-82
2023/06/16 12:28:03;;;;;;;0.10;0.10;;;15.90;99.90;;;;;;5100962;28;20020;-79
2023/06/16 12:30:34;;;;;;;0.10;0.10;;;16.00;99.90;;;;;;5104907;28;20752;-87
2023/06/16 12:33:10;;;;;;;0.20;0.20;;;16.20;99.90;;;;;;5083656;28;20028;-84
2023/06/16 12:35:35;;;;;;;0.10;0.10;;;16.40;99.90;;;;;;5100268;28;20024;-83
2023/06/16 12:38:01;;;;;;;0.20;0.20;;;16.60;99.90;;;;;;5100990;28;20050;-77
2023/06/16 12:40:31;;;;;;;0.40;0.40;;;16.50;99.90;;;;;;5101137;28;20053;-90
2023/06/16 12:43:17;;;;;;;0.10;0.10;;;16.70;99.90;;;;;;5100877;28;20212;-76
2023/06/16 12:45:43;;;;;;;0.40;0.40;;;16.80;99.90;;;;;;4998114;28;20034;-82
2023/06/16 12:48:09;;;;;;;0.10;0.10;;;17.00;99.90;;;;;;4998320;28;20547;-78
2023/06/16 12:50:34;;;;;;;0.10;0.10;;;17.20;99.90;;;;;;4998129;28;20069;-88